Time;durP1;ratioP1;P1;durP2;ratioP2;P2;SDS_P1;SDS_P2;PMS_P1;PMS_P2;Temp;Humidity;BMP_temperature;BMP_pressure;BME280_temperature;BME280_humidity;BME280_pressure;Samples;Min_cycle;Max_cycle;Signal;HPM_P1;HPM_P2
2022/06/22 00:00:18;;;;;;;4.53;2.10;;;;;;;;;;4996624;28;20484;-69
2022/06/22 00:02:47;;;;;;;4.60;2.13;;;;;;;;;;4980114;28;20160;-70
2022/06/22 00:05:36;;;;;;;3.50;2.00;;;;;;;;;;4996687;28;20030;-72
2022/06/22 00:08:05;;;;;;;3.67;2.03;;;;;;;;;;4963550;28;20022;-70
2022/06/22 00:10:33;;;;;;;4.05;2.20;;;;;;;;;;4979096;28;20434;-70
2022/06/22 00:13:01;;;;;;;4.07;2.00;;;;;;;;;;4996878;28;20046;-70
2022/06/22 00:15:33;;;;;;;4.72;2.00;;;;;;;;;;4979192;28;20037;-69
2022/06/22 00:18:01;;;;;;;3.30;2.15;;;;;;;;;;4996894;28;20049;-70
2022/06/22 00:20:29;;;;;;;4.25;2.10;;;;;;;;;;4996393;28;20027;-69
2022/06/22 00:23:18;;;;;;;6.60;2.25;;;;;;;;;;4996571;28;20065;-69
2022/06/22 00:25:43;;;;;;;3.50;2.15;;;;;;;;;;4996342;28;20439;-71
2022/06/22 00:28:59;;;;;;;3.03;1.93;;;;;;;;;;4996041;28;20026;-70
2022/06/22 00:31:37;;;;;;;4.05;1.90;;;;;;;;;;4966399;28;20264;-69
2022/06/22 00:34:09;;;;;;;4.63;2.30;;;;;;;;;;4978757;28;20108;-70
2022/06/22 00:37:01;;;;;;;4.90;2.00;;;;;;;;;;4996262;28;20079;-70
2022/06/22 00:39:29;;;;;;;5.15;1.92;;;;;;;;;;4980363;28;20519;-71
2022/06/22 00:42:14;;;;;;;4.10;2.35;;;;;;;;;;4996010;28;20472;-69
2022/06/22 00:44:44;;;;;;;4.57;2.20;;;;;;;;;;4978627;28;20037;-70
2022/06/22 00:47:21;;;;;;;4.90;2.22;;;;;;;;;;4996036;28;20496;-70
2022/06/22 00:49:47;;;;;;;5.63;2.03;;;;;;;;;;4995016;28;20034;-71
2022/06/22 00:52:23;;;;;;;7.75;1.92;;;;;;;;;;4997335;28;20399;-74
2022/06/22 00:54:49;;;;;;;4.32;1.98;;;;;;;;;;4998078;28;20483;-75
2022/06/22 00:57:23;;;;;;;3.70;2.08;;;;;;;;;;4997869;28;20092;-74
2022/06/22 00:59:54;;;;;;;3.55;2.30;;;;;;;;;;4997683;28;20041;-73
2022/06/22 01:02:39;;;;;;;6.10;2.10;;;;;;;;;;4980356;28;20057;-74
2022/06/22 01:05:21;;;;;;;4.22;2.33;;;;;;;;;;4997471;28;20093;-73
2022/06/22 01:07:53;;;;;;;3.92;1.90;;;;;;;;;;4998407;28;20027;-74
2022/06/22 01:10:36;;;;;;;4.00;2.28;;;;;;;;;;4999463;28;20027;-74
2022/06/22 01:13:23;;;;;;;6.47;2.13;;;;;;;;;;4998469;28;20583;-75
2022/06/22 01:15:55;;;;;;;3.50;2.00;;;;;;;;;;4998682;28;20380;-74
2022/06/22 01:18:29;;;;;;;3.95;2.13;;;;;;;;;;4998974;28;20034;-75
2022/06/22 01:21:18;;;;;;;2.55;2.17;;;;;;;;;;4998714;28;20106;-74
2022/06/22 01:24:05;;;;;;;4.30;2.03;;;;;;;;;;4999024;28;20030;-75
2022/06/22 01:27:00;;;;;;;3.05;2.03;;;;;;;;;;4998404;28;20419;-75
2022/06/22 01:29:26;;;;;;;3.63;1.90;;;;;;;;;;4981242;28;20376;-74
2022/06/22 01:31:57;;;;;;;6.25;2.20;;;;;;;;;;4998405;28;20038;-75
2022/06/22 01:34:25;;;;;;;6.00;2.10;;;;;;;;;;4997427;28;20041;-75
2022/06/22 01:36:50;;;;;;;6.72;2.25;;;;;;;;;;4980176;28;20045;-75
2022/06/22 01:39:16;;;;;;;6.45;2.13;;;;;;;;;;4997919;28;20105;-74
2022/06/22 01:41:57;;;;;;;3.22;1.90;;;;;;;;;;4998066;28;20031;-75
2022/06/22 01:44:27;;;;;;;3.72;1.90;;;;;;;;;;4998053;28;20494;-75
2022/06/22 01:47:15;;;;;;;3.38;1.90;;;;;;;;;;4998389;28;20484;-75
2022/06/22 01:49:53;;;;;;;7.57;2.30;;;;;;;;;;4980767;28;20467;-75
2022/06/22 01:52:58;;;;;;;2.42;1.95;;;;;;;;;;4999293;28;20027;-73
2022/06/22 01:55:42;;;;;;;3.25;2.05;;;;;;;;;;4984888;28;20026;-73
2022/06/22 01:58:13;;;;;;;4.38;2.13;;;;;;;;;;4985564;28;20037;-74
2022/06/22 02:00:40;;;;;;;4.32;2.08;;;;;;;;;;5002772;28;20019;-74
2022/06/22 02:03:22;;;;;;;2.67;2.13;;;;;;;;;;4985438;28;20029;-74
2022/06/22 02:05:56;;;;;;;4.50;2.00;;;;;;;;;;5003334;28;20035;-73
2022/06/22 02:08:30;;;;;;;5.47;2.33;;;;;;;;;;5003192;28;20387;-74
2022/06/22 02:11:10;;;;;;;3.03;1.85;;;;;;;;;;5002448;28;20030;-73
2022/06/22 02:14:02;;;;;;;2.83;1.77;;;;;;;;;;5002591;28;20372;-74
2022/06/22 02:16:47;;;;;;;3.72;2.10;;;;;;;;;;5001875;28;20026;-74
2022/06/22 02:19:15;;;;;;;5.25;2.00;;;;;;;;;;4983968;28;20030;-74
2022/06/22 02:21:47;;;;;;;4.07;2.17;;;;;;;;;;5001626;28;20030;-73
2022/06/22 02:24:33;;;;;;;3.35;2.20;;;;;;;;;;5001249;28;20041;-74
2022/06/22 02:27:15;;;;;;;4.03;1.90;;;;;;;;;;4999818;28;20033;-74
2022/06/22 02:29:48;;;;;;;5.70;2.08;;;;;;;;;;4999851;28;20476;-73
2022/06/22 02:32:27;;;;;;;5.00;2.10;;;;;;;;;;4983637;28;20418;-73
2022/06/22 02:34:55;;;;;;;5.63;1.90;;;;;;;;;;5001955;28;20030;-73
2022/06/22 02:37:31;;;;;;;4.13;2.15;;;;;;;;;;5001447;28;20089;-74
2022/06/22 02:40:00;;;;;;;3.42;2.22;;;;;;;;;;5001703;28;20104;-73
2022/06/22 02:45:13;;;;;;;2.95;2.10;;;;;;;;;;5002511;28;20567;-74
2022/06/22 02:47:48;;;;;;;2.75;1.70;;;;;;;;;;5002460;28;20034;-75
2022/06/22 02:50:34;;;;;;;2.70;1.92;;;;;;;;;;5003058;28;20018;-74
2022/06/22 02:53:23;;;;;;;3.83;2.30;;;;;;;;;;5001928;28;20444;-75
2022/06/22 02:55:50;;;;;;;6.85;2.15;;;;;;;;;;5000769;28;20419;-74
2022/06/22 02:58:30;;;;;;;3.17;1.90;;;;;;;;;;5002381;28;20022;-73
2022/06/22 03:01:00;;;;;;;4.38;1.95;;;;;;;;;;5002438;28;20019;-73
2022/06/22 03:03:26;;;;;;;4.80;1.98;;;;;;;;;;5001710;28;20391;-76
2022/06/22 03:05:55;;;;;;;3.90;1.73;;;;;;;;;;5001610;28;20041;-73
2022/06/22 03:08:21;;;;;;;2.63;1.85;;;;;;;;;;5001625;28;20025;-73
2022/06/22 03:10:50;;;;;;;5.78;2.20;;;;;;;;;;5001468;28;20030;-73
2022/06/22 03:13:31;;;;;;;3.53;1.90;;;;;;;;;;5001859;28;20471;-75
2022/06/22 03:15:56;;;;;;;2.65;1.80;;;;;;;;;;5001686;28;20027;-73
2022/06/22 03:18:28;;;;;;;4.80;2.10;;;;;;;;;;4984166;28;20121;-74
2022/06/22 03:20:58;;;;;;;5.25;2.38;;;;;;;;;;4984505;28;20128;-74
2022/06/22 03:23:32;;;;;;;4.90;2.08;;;;;;;;;;5001803;28;20022;-75
2022/06/22 03:26:07;;;;;;;6.32;2.03;;;;;;;;;;5001634;28;20026;-74
2022/06/22 03:28:38;;;;;;;2.92;2.00;;;;;;;;;;5001967;28;20034;-74
2022/06/22 03:31:08;;;;;;;2.30;1.83;;;;;;;;;;5000955;28;20035;-73
2022/06/22 03:33:40;;;;;;;4.60;2.45;;;;;;;;;;4999261;28;20032;-73
2022/06/22 03:36:13;;;;;;;3.22;1.95;;;;;;;;;;4999675;28;20098;-74
2022/06/22 03:38:46;;;;;;;3.90;2.22;;;;;;;;;;4999983;28;20476;-74
2022/06/22 03:41:15;;;;;;;4.75;2.00;;;;;;;;;;4981940;28;20041;-74
2022/06/22 03:43:47;;;;;;;4.40;2.30;;;;;;;;;;4998842;28;20034;-73
2022/06/22 03:46:20;;;;;;;8.40;2.75;;;;;;;;;;4999906;28;20042;-73
2022/06/22 03:48:56;;;;;;;7.15;4.75;;;;;;;;;;4999395;28;20046;-73
2022/06/22 03:51:38;;;;;;;5.55;4.07;;;;;;;;;;5000645;28;20053;-74
2022/06/22 03:54:19;;;;;;;5.78;3.80;;;;;;;;;;5000459;28;20039;-73
2022/06/22 03:56:50;;;;;;;6.30;4.05;;;;;;;;;;4999203;28;20114;-73
2022/06/22 03:59:18;;;;;;;4.50;3.30;;;;;;;;;;5000001;28;20383;-74
2022/06/22 04:01:44;;;;;;;4.88;2.85;;;;;;;;;;4999785;28;20065;-75
2022/06/22 04:04:09;;;;;;;7.63;3.00;;;;;;;;;;4999395;28;20077;-73
2022/06/22 04:06:39;;;;;;;4.03;2.30;;;;;;;;;;4999196;28;20022;-76
2022/06/22 04:09:11;;;;;;;3.90;2.05;;;;;;;;;;4982819;28;20053;-73
2022/06/22 04:12:11;;;;;;;3.42;2.25;;;;;;;;;;4999440;28;20027;-74
2022/06/22 04:14:45;;;;;;;3.75;2.30;;;;;;;;;;4999328;28;20034;-75
2022/06/22 04:17:33;;;;;;;3.47;2.10;;;;;;;;;;4998415;28;20026;-74
2022/06/22 04:20:18;;;;;;;10.70;2.50;;;;;;;;;;4997993;28;20026;-76
2022/06/22 04:22:52;;;;;;;6.20;2.15;;;;;;;;;;4998647;28;20117;-74
2022/06/22 04:25:28;;;;;;;2.92;2.17;;;;;;;;;;4999678;28;20108;-74
2022/06/22 04:27:56;;;;;;;6.70;2.00;;;;;;;;;;4999445;28;20034;-74
2022/06/22 04:30:26;;;;;;;5.85;2.80;;;;;;;;;;4998562;28;20023;-74
2022/06/22 04:33:17;;;;;;;5.95;2.40;;;;;;;;;;4998069;28;20034;-74
2022/06/22 04:36:00;;;;;;;3.90;2.15;;;;;;;;;;4998675;28;20026;-74
2022/06/22 04:38:43;;;;;;;5.80;2.20;;;;;;;;;;4998372;28;20049;-74
2022/06/22 04:41:27;;;;;;;5.43;1.88;;;;;;;;;;4998154;28;20252;-73
2022/06/22 04:43:54;;;;;;;2.65;1.92;;;;;;;;;;4998179;28;20106;-74
2022/06/22 04:46:24;;;;;;;4.20;1.88;;;;;;;;;;4980468;28;20385;-74
2022/06/22 04:48:52;;;;;;;5.70;2.08;;;;;;;;;;4997791;28;20025;-75
2022/06/22 04:51:29;;;;;;;4.28;1.83;;;;;;;;;;4997557;28;20130;-73
2022/06/22 04:54:00;;;;;;;5.50;2.00;;;;;;;;;;4997333;28;20525;-73
2022/06/22 04:56:33;;;;;;;7.45;2.20;;;;;;;;;;4980011;28;20026;-74
2022/06/22 04:58:59;;;;;;;4.43;1.95;;;;;;;;;;4997432;28;20137;-74
2022/06/22 05:01:30;;;;;;;3.00;2.00;;;;;;;;;;4997933;28;20027;-74
2022/06/22 05:04:01;;;;;;;4.72;1.80;;;;;;;;;;4998921;28;20030;-73
2022/06/22 05:06:48;;;;;;;3.08;2.10;;;;;;;;;;4998353;28;20022;-74
2022/06/22 05:09:36;;;;;;;3.55;1.80;;;;;;;;;;4980752;28;20463;-73
2022/06/22 05:12:02;;;;;;;3.97;2.10;;;;;;;;;;4998291;28;20022;-73
2022/06/22 05:14:31;;;;;;;4.88;1.90;;;;;;;;;;4981090;28;20118;-74
2022/06/22 05:17:05;;;;;;;3.75;1.98;;;;;;;;;;4998009;28;20018;-74
2022/06/22 05:19:54;;;;;;;5.53;1.90;;;;;;;;;;4998128;28;20026;-73
2022/06/22 05:22:19;;;;;;;6.57;2.03;;;;;;;;;;4997894;28;20022;-74
2022/06/22 05:24:54;;;;;;;9.70;2.13;;;;;;;;;;4997561;28;20578;-74
2022/06/22 05:27:26;;;;;;;22.60;14.48;;;;;;;;;;4979908;28;20023;-74
2022/06/22 05:29:59;;;;;;;4.85;2.30;;;;;;;;;;4997340;28;20132;-74
2022/06/22 05:32:31;;;;;;;5.40;1.80;;;;;;;;;;4998265;28;20053;-74
2022/06/22 05:34:57;;;;;;;7.22;2.15;;;;;;;;;;4997561;28;20129;-73
2022/06/22 05:37:28;;;;;;;6.38;2.00;;;;;;;;;;4979850;28;20076;-73
2022/06/22 05:39:55;;;;;;;6.07;2.00;;;;;;;;;;4997064;28;20023;-74
2022/06/22 05:42:20;;;;;;;6.15;1.83;;;;;;;;;;4997327;28;20128;-74
2022/06/22 05:44:46;;;;;;;4.47;2.00;;;;;;;;;;4996900;28;20029;-74
2022/06/22 05:47:17;;;;;;;4.38;1.85;;;;;;;;;;4997335;28;20076;-74
2022/06/22 05:49:50;;;;;;;6.63;1.67;;;;;;;;;;4997613;28;20030;-75
2022/06/22 05:52:36;;;;;;;7.68;1.80;;;;;;;;;;4997372;28;20476;-72
2022/06/22 05:55:10;;;;;;;4.82;1.75;;;;;;;;;;4997461;28;20033;-74
2022/06/22 05:57:45;;;;;;;8.88;1.90;;;;;;;;;;4998447;28;20036;-75
2022/06/22 06:00:23;;;;;;;8.60;1.83;;;;;;;;;;4998630;28;20535;-73
2022/06/22 06:02:57;;;;;;;5.47;1.65;;;;;;;;;;4997808;28;20504;-75
2022/06/22 06:05:37;;;;;;;6.20;1.83;;;;;;;;;;4996564;28;20117;-74
2022/06/22 06:08:09;;;;;;;5.97;1.58;;;;;;;;;;4978294;28;20122;-75
2022/06/22 06:10:42;;;;;;;5.15;1.42;;;;;;;;;;4995413;28;20027;-72
2022/06/22 06:13:23;;;;;;;10.55;1.50;;;;;;;;;;4978333;28;20033;-73
2022/06/22 06:15:54;;;;;;;3.33;1.30;;;;;;;;;;4995510;28;20037;-74
2022/06/22 06:18:32;;;;;;;3.40;1.52;;;;;;;;;;4995313;28;20071;-74
2022/06/22 06:21:05;;;;;;;4.47;1.50;;;;;;;;;;4995146;28;20018;-73
2022/06/22 06:23:35;;;;;;;8.43;1.25;;;;;;;;;;4994961;28;20548;-74
2022/06/22 06:29:03;;;;;;;4.30;1.30;;;;;;;;;;4994770;28;20029;-74
2022/06/22 06:31:45;;;;;;;2.45;1.25;;;;;;;;;;4994831;28;20026;-73
2022/06/22 06:34:16;;;;;;;3.92;1.30;;;;;;;;;;4977803;28;20026;-74
2022/06/22 06:36:58;;;;;;;2.42;1.33;;;;;;;;;;4995074;28;20073;-73
2022/06/22 06:39:28;;;;;;;6.35;1.38;;;;;;;;;;4997138;28;20396;-74
2022/06/22 06:42:04;;;;;;;4.55;1.40;;;;;;;;;;4999033;28;20475;-74
2022/06/22 06:44:34;;;;;;;4.57;1.50;;;;;;;;;;4981822;28;20022;-74
2022/06/22 06:47:05;;;;;;;4.68;1.52;;;;;;;;;;5000921;28;20403;-76
2022/06/22 06:49:34;;;;;;;4.88;1.50;;;;;;;;;;5000127;28;20038;-73
2022/06/22 06:52:03;;;;;;;5.25;1.50;;;;;;;;;;4999995;28;20033;-75
2022/06/22 06:54:41;;;;;;;4.15;1.30;;;;;;;;;;4982702;28;20026;-74
2022/06/22 06:57:12;;;;;;;2.20;1.20;;;;;;;;;;4999185;28;20034;-74
2022/06/22 06:59:39;;;;;;;5.95;1.20;;;;;;;;;;4999294;28;20026;-74
2022/06/22 07:02:32;;;;;;;2.05;1.20;;;;;;;;;;4999517;28;20109;-75
2022/06/22 07:05:05;;;;;;;3.38;1.25;;;;;;;;;;4998754;28;20046;-75
2022/06/22 07:07:40;;;;;;;7.43;1.77;;;;;;;;;;4998892;28;20117;-75
2022/06/22 07:10:25;;;;;;;4.47;1.20;;;;;;;;;;4998545;28;20026;-74
2022/06/22 07:12:58;;;;;;;2.10;1.30;;;;;;;;;;4999274;28;20026;-74
2022/06/22 07:15:46;;;;;;;3.90;1.50;;;;;;;;;;4999218;28;20057;-75
2022/06/22 07:18:20;;;;;;;5.05;1.50;;;;;;;;;;4999230;28;20027;-75
2022/06/22 07:20:50;;;;;;;3.78;1.40;;;;;;;;;;4999195;28;20022;-74
2022/06/22 07:23:20;;;;;;;4.65;1.27;;;;;;;;;;4999538;28;20030;-74
2022/06/22 07:25:49;;;;;;;4.43;1.40;;;;;;;;;;4980886;28;20476;-75
2022/06/22 07:28:23;;;;;;;5.53;1.30;;;;;;;;;;5000014;28;20026;-74
2022/06/22 07:30:56;;;;;;;2.00;1.00;;;;;;;;;;4997767;28;20096;-74
2022/06/22 07:33:21;;;;;;;;;;;;;;;;;;4978826;28;20470;-74
2022/06/22 07:35:53;;;;;;;5.38;1.25;;;;;;;;;;4997973;28;20418;-74
2022/06/22 07:39:03;;;;;;;3.70;1.10;;;;;;;;;;4998991;28;20028;-75
2022/06/22 07:41:29;;;;;;;5.60;1.15;;;;;;;;;;4978841;28;20034;-76
2022/06/22 07:44:03;;;;;;;4.15;1.40;;;;;;;;;;4995315;28;20055;-74
2022/06/22 07:46:47;;;;;;;4.05;1.33;;;;;;;;;;4995469;28;20038;-78
2022/06/22 07:49:17;;;;;;;2.78;1.00;;;;;;;;;;4996569;28;20038;-73
2022/06/22 07:51:48;;;;;;;3.50;1.20;;;;;;;;;;4996313;28;20438;-74
2022/06/22 07:54:20;;;;;;;2.83;1.27;;;;;;;;;;4997964;28;20088;-74
2022/06/22 07:57:10;;;;;;;4.32;1.33;;;;;;;;;;4996867;28;20033;-74
2022/06/22 07:59:50;;;;;;;1.75;1.05;;;;;;;;;;4997409;28;20109;-74
2022/06/22 08:02:18;;;;;;;4.07;1.60;;;;;;;;;;4979587;28;20085;-74
2022/06/22 08:04:53;;;;;;;5.03;1.20;;;;;;;;;;4979438;28;20108;-74
2022/06/22 08:07:39;;;;;;;3.38;1.10;;;;;;;;;;4996610;28;20026;-74
2022/06/22 08:10:16;;;;;;;3.03;1.25;;;;;;;;;;4996788;28;20066;-73
2022/06/22 08:12:59;;;;;;;5.88;1.20;;;;;;;;;;4996729;28;20124;-74
2022/06/22 08:15:25;;;;;;;3.65;1.20;;;;;;;;;;4997461;28;20035;-74
2022/06/22 08:17:53;;;;;;;5.80;1.23;;;;;;;;;;4997703;28;20069;-75
2022/06/22 08:20:28;;;;;;;1.75;1.30;;;;;;;;;;4981086;28;20037;-75
2022/06/22 08:22:54;;;;;;;2.97;1.40;;;;;;;;;;4998472;28;20046;-75
2022/06/22 08:25:21;;;;;;;4.03;1.50;;;;;;;;;;4998087;28;20111;-75
2022/06/22 08:27:47;;;;;;;5.15;1.30;;;;;;;;;;4980610;28;20026;-74
2022/06/22 08:30:15;;;;;;;2.03;1.20;;;;;;;;;;4998219;28;20037;-74
2022/06/22 08:32:59;;;;;;;2.83;1.40;;;;;;;;;;4998049;28;20109;-74
2022/06/22 08:35:29;;;;;;;2.78;1.23;;;;;;;;;;4998369;28;20459;-75
2022/06/22 08:38:21;;;;;;;2.67;1.42;;;;;;;;;;4998063;28;20090;-75
2022/06/22 08:41:08;;;;;;;3.63;1.42;;;;;;;;;;4979787;28;20023;-75
2022/06/22 08:43:48;;;;;;;5.75;1.55;;;;;;;;;;4997956;28;20033;-75
2022/06/22 08:46:45;;;;;;;4.28;2.03;;;;;;;;;;4996976;28;20045;-74
2022/06/22 08:49:32;;;;;;;2.80;1.38;;;;;;;;;;4996469;28;20050;-74
2022/06/22 08:52:03;;;;;;;4.47;1.40;;;;;;;;;;4996275;28;20041;-74
2022/06/22 08:55:00;;;;;;;9.27;1.52;;;;;;;;;;4995941;28;20022;-76
2022/06/22 08:57:44;;;;;;;4.07;1.27;;;;;;;;;;4995702;28;20030;-75
2022/06/22 09:00:17;;;;;;;;;;;;;;;;;;4978771;28;20022;-74
2022/06/22 09:03:11;;;;;;;6.60;1.35;;;;;;;;;;4994790;28;19910;-74
2022/06/22 09:06:01;;;;;;;4.65;1.30;;;;;;;;;;4995022;28;20049;-75
2022/06/22 09:08:32;;;;;;;5.72;1.52;;;;;;;;;;4995403;28;20392;-73
2022/06/22 09:11:31;;;;;;;5.05;1.85;;;;;;;;;;4977596;28;20022;-74
2022/06/22 09:14:34;;;;;;;3.70;1.38;;;;;;;;;;4978116;28;20050;-75
2022/06/22 09:17:05;;;;;;;2.33;1.40;;;;;;;;;;4977775;28;20025;-74
2022/06/22 09:19:58;;;;;;;3.70;1.38;;;;;;;;;;4995806;28;20026;-74
2022/06/22 09:22:48;;;;;;;3.35;1.40;;;;;;;;;;4995839;28;20034;-75
2022/06/22 09:25:47;;;;;;;3.80;1.40;;;;;;;;;;4995256;28;20045;-75
2022/06/22 09:28:26;;;;;;;4.88;1.35;;;;;;;;;;4977598;28;20210;-74
2022/06/22 09:31:13;;;;;;;3.42;1.48;;;;;;;;;;4995707;28;20030;-74
2022/06/22 09:33:51;;;;;;;4.57;1.40;;;;;;;;;;4977667;28;20026;-74
2022/06/22 09:36:28;;;;;;;3.83;1.40;;;;;;;;;;4995834;28;20169;-74
2022/06/22 09:39:20;;;;;;;2.33;1.30;;;;;;;;;;4995427;28;20498;-74
2022/06/22 09:42:03;;;;;;;4.32;1.33;;;;;;;;;;4995453;28;20033;-73
2022/06/22 09:44:50;;;;;;;1.88;1.33;;;;;;;;;;4995375;28;20022;-75
2022/06/22 09:47:16;;;;;;;1.90;1.50;;;;;;;;;;4994920;28;20061;-75
2022/06/22 09:50:03;;;;;;;2.93;1.30;;;;;;;;;;4994988;28;20026;-76
2022/06/22 09:52:46;;;;;;;4.22;1.45;;;;;;;;;;4995341;28;20476;-75
2022/06/22 09:59:11;;;;;;;3.28;1.40;;;;;;;;;;4995649;28;20498;-75
2022/06/22 10:01:42;;;;;;;1.92;1.20;;;;;;;;;;4987744;28;20129;-74
2022/06/22 10:04:45;;;;;;;2.58;1.13;;;;;;;;;;4996343;28;20042;-74
2022/06/22 10:07:51;;;;;;;2.72;1.30;;;;;;;;;;4996342;28;20022;-75
2022/06/22 10:10:31;;;;;;;2.15;1.27;;;;;;;;;;4996090;28;20022;-74
2022/06/22 10:13:27;;;;;;;3.17;1.38;;;;;;;;;;4978823;28;20476;-74
2022/06/22 10:16:15;;;;;;;2.10;1.20;;;;;;;;;;4999572;28;20117;-75
2022/06/22 10:19:06;;;;;;;3.42;1.40;;;;;;;;;;4999351;28;20033;-75
2022/06/22 10:21:58;;;;;;;4.00;1.63;;;;;;;;;;4999701;28;20037;-74
2022/06/22 10:24:51;;;;;;;4.70;1.40;;;;;;;;;;4982296;28;20072;-76
2022/06/22 10:27:33;;;;;;;4.47;1.70;;;;;;;;;;4999287;28;20026;-75
2022/06/22 10:30:21;;;;;;;4.55;1.38;;;;;;;;;;4998621;28;20050;-76
2022/06/22 10:33:05;;;;;;;2.78;1.50;;;;;;;;;;4999543;28;20419;-75
2022/06/22 10:35:57;;;;;;;3.85;1.20;;;;;;;;;;4998872;28;20026;-74
2022/06/22 10:38:44;;;;;;;4.10;1.35;;;;;;;;;;4999949;28;20175;-75
2022/06/22 10:47:29;;;;;;;4.78;1.20;;;;;;;;;;4998294;28;20082;-75
2022/06/22 10:50:27;;;;;;;3.72;1.25;;;;;;;;;;4998669;28;20076;-74
2022/06/22 10:53:27;;;;;;;3.47;1.40;;;;;;;;;;4998097;28;20446;-74
2022/06/22 10:56:08;;;;;;;2.33;1.33;;;;;;;;;;4980654;28;20022;-75
2022/06/22 10:59:00;;;;;;;1.63;1.10;;;;;;;;;;4998218;28;20410;-75
2022/06/22 11:01:52;;;;;;;2.40;1.15;;;;;;;;;;4998251;28;20027;-75
2022/06/22 11:04:35;;;;;;;2.13;1.13;;;;;;;;;;4998501;28;20070;-76
2022/06/22 11:07:06;;;;;;;1.80;1.08;;;;;;;;;;4998623;28;20026;-75
2022/06/22 11:09:48;;;;;;;3.22;1.20;;;;;;;;;;4998670;28;20033;-74
2022/06/22 11:12:39;;;;;;;3.83;1.30;;;;;;;;;;4998525;28;20030;-74
2022/06/22 11:15:46;;;;;;;2.38;1.10;;;;;;;;;;4998502;28;20022;-73
2022/06/22 11:18:29;;;;;;;4.13;1.20;;;;;;;;;;4981577;28;20030;-75
2022/06/22 11:21:09;;;;;;;1.73;1.20;;;;;;;;;;4998796;28;20030;-75
2022/06/22 11:24:05;;;;;;;4.28;1.25;;;;;;;;;;4998658;28;20025;-74
2022/06/22 11:33:25;;;;;;;4.38;1.27;;;;;;;;;;4956179;28;20386;-75
2022/06/22 11:35:56;;;;;;;1.65;1.30;;;;;;;;;;4998945;28;20424;-76
2022/06/22 11:38:57;;;;;;;2.30;1.30;;;;;;;;;;4981820;28;20022;-75
2022/06/22 11:41:49;;;;;;;3.85;1.33;;;;;;;;;;4938262;29;20056;-76
2022/06/22 11:45:50;;;;;;;5.32;1.40;;;;;;;;;;4996637;28;20038;-76
2022/06/22 11:47:49;;;;;;;3.75;1.40;;;;;;;;;;4987078;28;20066;-75
2022/06/22 11:50:40;;;;;;;2.95;1.40;;;;;;;;;;4998316;28;20033;-74
2022/06/22 11:53:15;;;;;;;1.63;1.20;;;;;;;;;;4998341;28;20377;-75
2022/06/22 11:55:49;;;;;;;2.13;1.20;;;;;;;;;;4997682;28;20080;-75
2022/06/22 11:58:35;;;;;;;2.85;1.30;;;;;;;;;;4998118;28;20061;-75
2022/06/22 12:01:38;;;;;;;6.28;1.60;;;;;;;;;;4998663;28;20026;-75
2022/06/22 12:04:28;;;;;;;2.85;1.40;;;;;;;;;;4997803;28;20498;-75
2022/06/22 12:07:24;;;;;;;2.35;1.50;;;;;;;;;;4997949;28;20472;-75
2022/06/22 12:10:14;;;;;;;2.85;1.23;;;;;;;;;;4998592;28;20057;-74
2022/06/22 12:13:21;;;;;;;2.42;1.42;;;;;;;;;;4980874;28;20026;-75
2022/06/22 12:16:11;;;;;;;2.80;1.20;;;;;;;;;;4967967;28;20038;-75
2022/06/22 12:19:06;;;;;;;3.42;1.70;;;;;;;;;;4997851;28;20084;-75
2022/06/22 12:21:47;;;;;;;3.00;1.50;;;;;;;;;;4997438;28;20033;-74
2022/06/22 12:24:36;;;;;;;3.38;1.55;;;;;;;;;;4997471;28;20026;-75
2022/06/22 12:27:31;;;;;;;4.90;1.50;;;;;;;;;;4980923;28;20023;-75
2022/06/22 12:30:18;;;;;;;1.67;1.20;;;;;;;;;;4997922;28;20030;-74
2022/06/22 12:32:52;;;;;;;3.88;1.30;;;;;;;;;;4998308;28;20056;-74
2022/06/22 12:35:46;;;;;;;2.22;1.23;;;;;;;;;;4997972;28;20041;-75
2022/06/22 12:38:21;;;;;;;2.90;1.25;;;;;;;;;;4997953;28;20030;-76
2022/06/22 12:40:58;;;;;;;4.40;1.45;;;;;;;;;;4997692;28;20390;-74
2022/06/22 12:43:55;;;;;;;1.95;1.42;;;;;;;;;;4998060;28;20040;-75
2022/06/22 12:46:31;;;;;;;2.55;1.40;;;;;;;;;;4998341;28;20027;-74
2022/06/22 12:49:27;;;;;;;3.08;1.40;;;;;;;;;;4998482;28;20433;-74
2022/06/22 12:52:02;;;;;;;5.72;1.40;;;;;;;;;;4998727;28;20030;-74
2022/06/22 12:54:32;;;;;;;5.03;1.30;;;;;;;;;;4999043;28;20132;-74
2022/06/22 12:57:02;;;;;;;2.78;1.42;;;;;;;;;;4980991;28;20048;-76
2022/06/22 12:59:36;;;;;;;3.03;1.40;;;;;;;;;;4998245;28;20026;-75
2022/06/22 13:02:09;;;;;;;6.20;1.52;;;;;;;;;;4980549;28;20080;-76
2022/06/22 13:04:37;;;;;;;2.40;1.50;;;;;;;;;;4997463;28;20105;-75
2022/06/22 13:07:09;;;;;;;10.32;1.55;;;;;;;;;;4997867;28;20105;-76
2022/06/22 13:09:35;;;;;;;3.20;1.40;;;;;;;;;;4997850;28;20026;-75
2022/06/22 13:12:04;;;;;;;2.22;1.42;;;;;;;;;;4996217;28;20030;-75
2022/06/22 13:14:40;;;;;;;3.42;1.60;;;;;;;;;;4997055;28;20062;-75
2022/06/22 13:17:30;;;;;;;2.40;1.50;;;;;;;;;;4996922;28;20030;-75
2022/06/22 13:20:14;;;;;;;5.40;1.40;;;;;;;;;;4997364;28;20018;-74
2022/06/22 13:22:58;;;;;;;2.10;1.50;;;;;;;;;;4997282;28;20142;-75
2022/06/22 13:25:42;;;;;;;3.08;1.52;;;;;;;;;;4997074;28;20078;-75
2022/06/22 13:28:36;;;;;;;5.60;1.50;;;;;;;;;;4997087;28;20082;-75
2022/06/22 13:31:17;;;;;;;3.58;1.67;;;;;;;;;;4996937;28;20030;-75
2022/06/22 13:33:50;;;;;;;2.63;1.52;;;;;;;;;;4996255;28;20079;-75
2022/06/22 13:36:36;;;;;;;4.50;1.33;;;;;;;;;;4979494;28;20030;-75
2022/06/22 13:39:11;;;;;;;4.07;1.50;;;;;;;;;;4996337;28;20080;-75
2022/06/22 13:41:51;;;;;;;2.97;1.50;;;;;;;;;;4996285;28;20153;-74
2022/06/22 13:44:27;;;;;;;4.88;1.60;;;;;;;;;;4996604;28;20053;-75
2022/06/22 13:47:08;;;;;;;3.88;1.45;;;;;;;;;;4997557;28;20023;-76
2022/06/22 13:49:53;;;;;;;3.97;1.50;;;;;;;;;;5001195;28;20030;-76
2022/06/22 13:52:34;;;;;;;2.97;1.60;;;;;;;;;;5002631;28;20026;-75
2022/06/22 13:55:21;;;;;;;5.45;1.67;;;;;;;;;;5002766;28;20049;-75
2022/06/22 13:57:56;;;;;;;5.10;1.52;;;;;;;;;;5002453;28;20041;-75
2022/06/22 14:00:53;;;;;;;6.40;1.80;;;;;;;;;;5002480;28;20073;-75
2022/06/22 14:03:30;;;;;;;4.95;1.50;;;;;;;;;;5003388;28;20068;-75
2022/06/22 14:06:00;;;;;;;3.60;1.63;;;;;;;;;;5003229;28;20022;-75
2022/06/22 14:08:34;;;;;;;3.58;1.42;;;;;;;;;;4985919;28;20026;-75
2022/06/22 14:11:12;;;;;;;3.85;1.80;;;;;;;;;;4985705;28;20117;-76
2022/06/22 14:13:51;;;;;;;4.30;1.67;;;;;;;;;;5004638;28;20030;-75
2022/06/22 14:16:29;;;;;;;4.15;1.60;;;;;;;;;;5004356;28;20029;-75
2022/06/22 14:19:01;;;;;;;5.70;1.88;;;;;;;;;;5004111;28;20113;-75
2022/06/22 14:21:53;;;;;;;3.00;1.50;;;;;;;;;;4986818;28;20369;-75
2022/06/22 14:24:42;;;;;;;2.80;1.50;;;;;;;;;;4995854;28;20068;-74
2022/06/22 14:27:34;;;;;;;7.88;1.73;;;;;;;;;;5002186;28;20026;-75
2022/06/22 14:30:41;;;;;;;3.92;1.60;;;;;;;;;;5002822;28;20022;-75
2022/06/22 14:33:44;;;;;;;2.80;1.52;;;;;;;;;;4981659;28;20072;-75
2022/06/22 14:36:29;;;;;;;5.38;1.60;;;;;;;;;;5002388;28;20058;-75
2022/06/22 14:39:11;;;;;;;2.63;1.38;;;;;;;;;;5001976;28;20041;-74
2022/06/22 14:41:43;;;;;;;4.35;1.58;;;;;;;;;;5001440;28;20058;-76
2022/06/22 14:44:33;;;;;;;6.80;1.60;;;;;;;;;;5001550;28;20472;-75
2022/06/22 14:47:05;;;;;;;2.55;1.30;;;;;;;;;;4983844;28;20030;-74
2022/06/22 14:49:58;;;;;;;4.47;1.50;;;;;;;;;;4984302;28;20034;-75
2022/06/22 14:52:43;;;;;;;4.85;1.70;;;;;;;;;;5001108;28;20057;-75
2022/06/22 14:55:28;;;;;;;2.80;1.63;;;;;;;;;;5001736;28;20479;-76
2022/06/22 14:58:16;;;;;;;2.17;1.50;;;;;;;;;;4983495;28;20038;-76
2022/06/22 15:00:56;;;;;;;2.85;1.67;;;;;;;;;;4999773;28;20128;-75
2022/06/22 15:03:26;;;;;;;2.38;1.38;;;;;;;;;;4998893;28;20038;-75
2022/06/22 15:06:04;;;;;;;4.75;1.77;;;;;;;;;;4998301;28;20090;-75
2022/06/22 15:09:04;;;;;;;6.72;1.70;;;;;;;;;;4980440;28;20026;-75
2022/06/22 15:14:43;;;;;;;;;;;;;;;;;;4997831;28;20114;-74
2022/06/22 15:17:16;;;;;;;3.42;1.50;;;;;;;;;;4996427;28;19909;-75
2022/06/22 15:19:48;;;;;;;3.72;1.55;;;;;;;;;;4997323;28;20101;-74
2022/06/22 15:22:39;;;;;;;4.97;1.67;;;;;;;;;;4997519;28;20113;-75
2022/06/22 15:25:21;;;;;;;5.45;1.50;;;;;;;;;;4998680;28;20035;-76
2022/06/22 15:28:15;;;;;;;10.48;1.80;;;;;;;;;;4999810;28;20042;-74
2022/06/22 15:31:03;;;;;;;3.55;1.42;;;;;;;;;;4998068;28;20046;-75
2022/06/22 15:33:32;;;;;;;3.38;1.80;;;;;;;;;;4996874;28;20114;-76
2022/06/22 15:36:27;;;;;;;3.65;1.40;;;;;;;;;;4997528;28;20030;-73
2022/06/22 15:39:02;;;;;;;3.03;1.75;;;;;;;;;;4997937;28;20026;-74
2022/06/22 15:42:00;;;;;;;3.15;1.63;;;;;;;;;;4997612;28;20062;-75
2022/06/22 15:44:35;;;;;;;4.03;1.70;;;;;;;;;;4997815;28;20030;-76
2022/06/22 15:47:23;;;;;;;6.85;1.80;;;;;;;;;;4998093;28;20064;-76
2022/06/22 15:50:06;;;;;;;5.13;1.70;;;;;;;;;;4996709;28;20029;-74
2022/06/22 15:52:46;;;;;;;2.33;1.42;;;;;;;;;;4997604;28;20508;-75
2022/06/22 15:55:14;;;;;;;3.80;1.50;;;;;;;;;;4996265;28;20599;-75
2022/06/22 15:57:46;;;;;;;3.03;1.80;;;;;;;;;;4995847;28;20034;-74
2022/06/22 16:00:22;;;;;;;5.15;1.83;;;;;;;;;;4996483;28;20054;-76
2022/06/22 16:02:53;;;;;;;3.75;1.70;;;;;;;;;;4996237;28;20475;-75
2022/06/22 16:05:40;;;;;;;2.50;1.42;;;;;;;;;;4995863;28;20083;-74
2022/06/22 16:08:20;;;;;;;2.72;1.48;;;;;;;;;;4996457;28;20057;-74
2022/06/22 16:14:18;;;;;;;4.82;1.60;;;;;;;;;;4997306;28;20488;-74
2022/06/22 16:16:57;;;;;;;3.60;1.77;;;;;;;;;;4996974;28;20124;-75
2022/06/22 16:19:39;;;;;;;2.38;1.50;;;;;;;;;;4997330;28;20391;-75
2022/06/22 16:22:11;;;;;;;5.20;1.90;;;;;;;;;;5000560;28;20496;-75